sensor_id;sensor_type;location;lat;lon;timestamp;pressure;altitude;pressure_sealevel;temperature;humidity
34742;BME280;20968;42.696;23.360;2022-07-29T00:00:09;95405.72;;;23.89;61.84
34742;BME280;20968;42.696;23.360;2022-07-29T00:02:35;95405.19;;;23.98;61.64
34742;BME280;20968;42.696;23.360;2022-07-29T00:05:01;95408.78;;;24.14;61.22
34742;BME280;20968;42.696;23.360;2022-07-29T00:07:26;95420.41;;;24.10;61.64
34742;BME280;20968;42.696;23.360;2022-07-29T00:09:52;95433.53;;;24.15;61.90
34742;BME280;20968;42.696;23.360;2022-07-29T00:12:18;95430.72;;;24.23;61.45
34742;BME280;20968;42.696;23.360;2022-07-29T00:14:43;95431.69;;;24.25;61.53
34742;BME280;20968;42.696;23.360;2022-07-29T00:17:09;95425.47;;;24.27;61.53
34742;BME280;20968;42.696;23.360;2022-07-29T00:19:34;95426.78;;;24.40;60.96
34742;BME280;20968;42.696;23.360;2022-07-29T00:22:01;95436.22;;;24.50;61.32
34742;BME280;20968;42.696;23.360;2022-07-29T00:24:26;95429.81;;;24.50;60.88
34742;BME280;20968;42.696;23.360;2022-07-29T00:26:52;95435.66;;;24.44;61.08
34742;BME280;20968;42.696;23.360;2022-07-29T00:29:17;95440.16;;;24.47;60.85
34742;BME280;20968;42.696;23.360;2022-07-29T00:31:43;95436.22;;;24.50;60.40
34742;BME280;20968;42.696;23.360;2022-07-29T00:34:08;95418.75;;;24.44;61.00
34742;BME280;20968;42.696;23.360;2022-07-29T00:36:54;95430.34;;;24.33;61.23
34742;BME280;20968;42.696;23.360;2022-07-29T00:39:19;95428.66;;;24.31;61.63
34742;BME280;20968;42.696;23.360;2022-07-29T00:41:45;95428.28;;;24.34;61.28
34742;BME280;20968;42.696;23.360;2022-07-29T00:44:10;95426.41;;;24.14;62.50
34742;BME280;20968;42.696;23.360;2022-07-29T00:46:35;95427.88;;;24.08;62.27
34742;BME280;20968;42.696;23.360;2022-07-29T00:49:01;95428.84;;;24.10;62.60
34742;BME280;20968;42.696;23.360;2022-07-29T00:51:27;95436.53;;;24.10;62.41
34742;BME280;20968;42.696;23.360;2022-07-29T00:53:52;95439.13;;;23.93;62.79
34742;BME280;20968;42.696;23.360;2022-07-29T00:56:18;95436.50;;;23.95;62.89
34742;BME280;20968;42.696;23.360;2022-07-29T00:58:46;95439.72;;;23.99;62.82
34742;BME280;20968;42.696;23.360;2022-07-29T01:01:12;95436.72;;;24.12;62.61
34742;BME280;20968;42.696;23.360;2022-07-29T01:03:37;95425.44;;;24.04;62.62
34742;BME280;20968;42.696;23.360;2022-07-29T01:06:03;95435.38;;;23.90;63.13
34742;BME280;20968;42.696;23.360;2022-07-29T01:08:31;95428.97;;;23.82;63.61
34742;BME280;20968;42.696;23.360;2022-07-29T01:10:58;95431.03;;;23.82;63.76
34742;BME280;20968;42.696;23.360;2022-07-29T01:13:25;95428.53;;;23.71;64.22
34742;BME280;20968;42.696;23.360;2022-07-29T01:15:56;95424.53;;;23.52;64.80
34742;BME280;20968;42.696;23.360;2022-07-29T01:18:26;95415.31;;;23.44;64.99
34742;BME280;20968;42.696;23.360;2022-07-29T01:26:37;95410.72;;;23.61;64.23
34742;BME280;20968;42.696;23.360;2022-07-29T01:31:57;95417.94;;;23.42;64.74
34742;BME280;20968;42.696;23.360;2022-07-29T01:34:28;95416.09;;;23.44;64.50
34742;BME280;20968;42.696;23.360;2022-07-29T01:37:57;95411.53;;;23.34;64.52
34742;BME280;20968;42.696;23.360;2022-07-29T01:39:49;95412.56;;;23.08;65.85
34742;BME280;20968;42.696;23.360;2022-07-29T01:42:35;95398.97;;;22.64;67.76
34742;BME280;20968;42.696;23.360;2022-07-29T01:45:10;95390.97;;;22.48;68.34
34742;BME280;20968;42.696;23.360;2022-07-29T01:47:46;95396.78;;;22.50;68.32
34742;BME280;20968;42.696;23.360;2022-07-29T01:50:16;95394.56;;;22.48;68.54
34742;BME280;20968;42.696;23.360;2022-07-29T01:53:12;95396.50;;;22.61;68.25
34742;BME280;20968;42.696;23.360;2022-07-29T01:55:42;95394.66;;;22.63;68.11
34742;BME280;20968;42.696;23.360;2022-07-29T01:58:11;95405.75;;;22.69;67.91
34742;BME280;20968;42.696;23.360;2022-07-29T02:00:37;95394.53;;;22.76;67.66
34742;BME280;20968;42.696;23.360;2022-07-29T02:03:09;95388.06;;;22.88;67.82
34742;BME280;20968;42.696;23.360;2022-07-29T02:05:37;95383.94;;;22.89;67.58
34742;BME280;20968;42.696;23.360;2022-07-29T02:08:04;95384.00;;;22.97;67.70
34742;BME280;20968;42.696;23.360;2022-07-29T02:10:32;95386.53;;;22.87;67.25
34742;BME280;20968;42.696;23.360;2022-07-29T02:12:59;95382.91;;;22.72;67.87
34742;BME280;20968;42.696;23.360;2022-07-29T02:15:27;95374.50;;;22.72;67.84
34742;BME280;20968;42.696;23.360;2022-07-29T02:18:04;95375.44;;;22.74;67.87
34742;BME280;20968;42.696;23.360;2022-07-29T02:20:30;95386.66;;;22.74;67.90
34742;BME280;20968;42.696;23.360;2022-07-29T02:22:58;95384.66;;;22.82;68.11
34742;BME280;20968;42.696;23.360;2022-07-29T02:25:26;95391.00;;;22.83;67.72
34742;BME280;20968;42.696;23.360;2022-07-29T02:27:53;95380.50;;;22.76;67.58
34742;BME280;20968;42.696;23.360;2022-07-29T02:30:21;95389.72;;;22.84;67.81
34742;BME280;20968;42.696;23.360;2022-07-29T02:32:49;95385.94;;;22.74;67.99
34742;BME280;20968;42.696;23.360;2022-07-29T02:35:16;95378.75;;;22.38;69.57
34742;BME280;20968;42.696;23.360;2022-07-29T02:37:44;95373.38;;;21.99;70.81
34742;BME280;20968;42.696;23.360;2022-07-29T02:40:31;95360.72;;;21.65;72.08
34742;BME280;20968;42.696;23.360;2022-07-29T02:42:57;95364.47;;;21.34;73.03
34742;BME280;20968;42.696;23.360;2022-07-29T02:45:23;95362.06;;;21.17;74.09
34742;BME280;20968;42.696;23.360;2022-07-29T02:47:49;95351.84;;;20.94;74.60
34742;BME280;20968;42.696;23.360;2022-07-29T02:50:20;95347.25;;;20.71;75.92
34742;BME280;20968;42.696;23.360;2022-07-29T02:52:53;95359.41;;;20.73;76.50
34742;BME280;20968;42.696;23.360;2022-07-29T02:55:27;95363.81;;;20.82;76.38
34742;BME280;20968;42.696;23.360;2022-07-29T02:57:59;95378.03;;;20.71;76.50
34742;BME280;20968;42.696;23.360;2022-07-29T03:00:31;95371.81;;;20.65;76.81
34742;BME280;20968;42.696;23.360;2022-07-29T03:03:03;95358.25;;;20.56;76.78
34742;BME280;20968;42.696;23.360;2022-07-29T03:05:30;95363.63;;;20.54;76.88
34742;BME280;20968;42.696;23.360;2022-07-29T03:07:58;95373.06;;;20.51;77.14
34742;BME280;20968;42.696;23.360;2022-07-29T03:10:26;95370.41;;;20.58;76.66
34742;BME280;20968;42.696;23.360;2022-07-29T03:12:52;95368.78;;;20.76;76.62
34742;BME280;20968;42.696;23.360;2022-07-29T03:15:19;95359.22;;;20.58;76.28
34742;BME280;20968;42.696;23.360;2022-07-29T03:17:46;95376.44;;;20.49;76.87
34742;BME280;20968;42.696;23.360;2022-07-29T03:20:11;95364.16;;;20.27;77.78
34742;BME280;20968;42.696;23.360;2022-07-29T03:22:42;95375.88;;;20.38;77.89
34742;BME280;20968;42.696;23.360;2022-07-29T03:25:13;95365.69;;;20.53;77.35
34742;BME280;20968;42.696;23.360;2022-07-29T03:27:39;95371.28;;;20.53;77.36
34742;BME280;20968;42.696;23.360;2022-07-29T03:30:05;95368.56;;;20.61;77.32
34742;BME280;20968;42.696;23.360;2022-07-29T03:32:31;95364.47;;;20.62;77.24
34742;BME280;20968;42.696;23.360;2022-07-29T03:34:56;95355.84;;;20.60;77.09
34742;BME280;20968;42.696;23.360;2022-07-29T03:37:21;95376.19;;;20.47;77.80
34742;BME280;20968;42.696;23.360;2022-07-29T03:39:49;95367.63;;;20.45;78.10
34742;BME280;20968;42.696;23.360;2022-07-29T03:42:17;95365.56;;;20.33;78.04
34742;BME280;20968;42.696;23.360;2022-07-29T03:44:45;95373.31;;;20.40;78.44
34742;BME280;20968;42.696;23.360;2022-07-29T03:47:14;95371.38;;;20.48;78.08
34742;BME280;20968;42.696;23.360;2022-07-29T03:49:40;95371.59;;;20.63;77.20
34742;BME280;20968;42.696;23.360;2022-07-29T03:52:07;95374.69;;;20.72;77.46
34742;BME280;20968;42.696;23.360;2022-07-29T03:54:33;95376.75;;;20.85;76.59
34742;BME280;20968;42.696;23.360;2022-07-29T03:57:01;95375.88;;;21.03;76.04
34742;BME280;20968;42.696;23.360;2022-07-29T04:01:52;95382.47;;;21.38;74.44
34742;BME280;20968;42.696;23.360;2022-07-29T04:04:19;95388.97;;;21.67;73.93
34742;BME280;20968;42.696;23.360;2022-07-29T04:06:46;95391.34;;;21.83;72.52
34742;BME280;20968;42.696;23.360;2022-07-29T04:09:11;95390.66;;;21.90;71.81
34742;BME280;20968;42.696;23.360;2022-07-29T04:11:40;95394.44;;;22.13;70.58
34742;BME280;20968;42.696;23.360;2022-07-29T04:14:06;95392.19;;;22.32;70.81
34742;BME280;20968;42.696;23.360;2022-07-29T04:16:32;95394.69;;;22.43;70.41
34742;BME280;20968;42.696;23.360;2022-07-29T04:18:58;95387.78;;;22.44;70.23
34742;BME280;20968;42.696;23.360;2022-07-29T04:21:23;95378.31;;;22.54;70.44
34742;BME280;20968;42.696;23.360;2022-07-29T04:23:49;95385.13;;;22.66;69.99
34742;BME280;20968;42.696;23.360;2022-07-29T04:26:16;95386.47;;;22.73;69.59
34742;BME280;20968;42.696;23.360;2022-07-29T04:28:41;95374.78;;;22.89;69.01
34742;BME280;20968;42.696;23.360;2022-07-29T04:31:08;95378.44;;;23.04;68.85
34742;BME280;20968;42.696;23.360;2022-07-29T04:33:33;95379.41;;;22.86;68.39
34742;BME280;20968;42.696;23.360;2022-07-29T04:35:59;95381.28;;;22.84;68.38
34742;BME280;20968;42.696;23.360;2022-07-29T04:38:24;95389.78;;;22.91;67.47
34742;BME280;20968;42.696;23.360;2022-07-29T04:40:50;95403.31;;;23.00;67.01
34742;BME280;20968;42.696;23.360;2022-07-29T04:43:15;95396.47;;;22.81;66.79
34742;BME280;20968;42.696;23.360;2022-07-29T04:45:41;95404.19;;;22.95;67.06
34742;BME280;20968;42.696;23.360;2022-07-29T04:48:06;95399.66;;;22.85;65.84
34742;BME280;20968;42.696;23.360;2022-07-29T04:50:32;95408.84;;;22.58;67.01
34742;BME280;20968;42.696;23.360;2022-07-29T04:52:57;95394.66;;;22.63;67.35
34742;BME280;20968;42.696;23.360;2022-07-29T04:55:23;95394.59;;;22.56;66.74
34742;BME280;20968;42.696;23.360;2022-07-29T04:57:48;95399.28;;;22.33;67.12
34742;BME280;20968;42.696;23.360;2022-07-29T05:00:14;95409.06;;;22.39;67.42
34742;BME280;20968;42.696;23.360;2022-07-29T05:02:39;95405.81;;;22.56;67.47
34742;BME280;20968;42.696;23.360;2022-07-29T05:05:05;95413.59;;;22.70;66.99
34742;BME280;20968;42.696;23.360;2022-07-29T05:07:30;95409.06;;;22.67;67.26
34742;BME280;20968;42.696;23.360;2022-07-29T05:09:56;95408.94;;;22.73;67.54
34742;BME280;20968;42.696;23.360;2022-07-29T05:12:25;95410.13;;;22.57;67.55
34742;BME280;20968;42.696;23.360;2022-07-29T05:14:51;95401.41;;;22.68;68.26
34742;BME280;20968;42.696;23.360;2022-07-29T05:17:17;95416.41;;;22.70;67.27
34742;BME280;20968;42.696;23.360;2022-07-29T05:19:42;95419.56;;;22.67;67.69
34742;BME280;20968;42.696;23.360;2022-07-29T05:22:07;95419.97;;;22.71;67.06
34742;BME280;20968;42.696;23.360;2022-07-29T05:24:33;95421.06;;;22.95;67.34
34742;BME280;20968;42.696;23.360;2022-07-29T05:26:58;95408.50;;;22.96;66.85
34742;BME280;20968;42.696;23.360;2022-07-29T05:29:24;95424.91;;;23.05;65.44
34742;BME280;20968;42.696;23.360;2022-07-29T05:31:49;95414.69;;;22.95;66.22
34742;BME280;20968;42.696;23.360;2022-07-29T05:34:16;95424.78;;;22.90;66.06
34742;BME280;20968;42.696;23.360;2022-07-29T05:36:42;95412.44;;;22.93;65.60
34742;BME280;20968;42.696;23.360;2022-07-29T05:39:07;95416.66;;;23.07;65.77
34742;BME280;20968;42.696;23.360;2022-07-29T05:41:32;95413.06;;;23.35;66.43
34742;BME280;20968;42.696;23.360;2022-07-29T05:43:58;95416.09;;;23.44;64.67
34742;BME280;20968;42.696;23.360;2022-07-29T05:46:23;95427.91;;;23.50;63.54
34742;BME280;20968;42.696;23.360;2022-07-29T05:48:49;95434.16;;;23.63;62.00
34742;BME280;20968;42.696;23.360;2022-07-29T05:51:14;95429.84;;;23.70;61.21
34742;BME280;20968;42.696;23.360;2022-07-29T05:53:40;95433.13;;;23.89;61.42
34742;BME280;20968;42.696;23.360;2022-07-29T05:56:06;95434.47;;;24.18;63.13
34742;BME280;20968;42.696;23.360;2022-07-29T05:58:31;95426.22;;;24.42;62.07
34742;BME280;20968;42.696;23.360;2022-07-29T06:00:57;95435.66;;;24.59;60.83
34742;BME280;20968;42.696;23.360;2022-07-29T06:03:25;95431.69;;;24.77;61.04
34742;BME280;20968;42.696;23.360;2022-07-29T06:05:51;95433.91;;;25.01;61.16
34742;BME280;20968;42.696;23.360;2022-07-29T06:08:17;95440.06;;;25.29;59.88
34742;BME280;20968;42.696;23.360;2022-07-29T06:10:42;95433.41;;;25.49;58.19
34742;BME280;20968;42.696;23.360;2022-07-29T06:13:08;95434.31;;;25.52;57.55
34742;BME280;20968;42.696;23.360;2022-07-29T06:15:34;95432.63;;;25.56;59.16
34742;BME280;20968;42.696;23.360;2022-07-29T06:17:59;95441.25;;;25.58;58.25
34742;BME280;20968;42.696;23.360;2022-07-29T06:20:24;95440.09;;;25.69;56.72
34742;BME280;20968;42.696;23.360;2022-07-29T06:22:50;95431.94;;;25.88;57.73
34742;BME280;20968;42.696;23.360;2022-07-29T06:25:15;95435.19;;;25.77;57.91
34742;BME280;20968;42.696;23.360;2022-07-29T06:27:41;95435.75;;;25.68;58.63
34742;BME280;20968;42.696;23.360;2022-07-29T06:30:07;95434.97;;;25.82;56.54
34742;BME280;20968;42.696;23.360;2022-07-29T06:32:33;95435.19;;;25.77;56.63
34742;BME280;20968;42.696;23.360;2022-07-29T06:34:58;95435.41;;;25.64;57.70
34742;BME280;20968;42.696;23.360;2022-07-29T06:37:24;95432.59;;;25.64;58.48
34742;BME280;20968;42.696;23.360;2022-07-29T06:39:50;95430.44;;;25.87;58.15
34742;BME280;20968;42.696;23.360;2022-07-29T06:42:35;95429.59;;;26.01;57.49
34742;BME280;20968;42.696;23.360;2022-07-29T06:45:00;95420.47;;;25.86;56.89
34742;BME280;20968;42.696;23.360;2022-07-29T06:47:26;95419.16;;;26.11;57.84
34742;BME280;20968;42.696;23.360;2022-07-29T06:49:51;95419.84;;;26.26;56.15
34742;BME280;20968;42.696;23.360;2022-07-29T06:52:17;95424.63;;;26.09;54.96
34742;BME280;20968;42.696;23.360;2022-07-29T06:54:42;95429.50;;;26.16;55.33
34742;BME280;20968;42.696;23.360;2022-07-29T06:57:13;95425.19;;;26.15;54.98
34742;BME280;20968;42.696;23.360;2022-07-29T06:59:38;95427.00;;;26.27;56.03
34742;BME280;20968;42.696;23.360;2022-07-29T07:02:04;95423.66;;;26.46;54.71
34742;BME280;20968;42.696;23.360;2022-07-29T07:04:29;95413.38;;;26.33;52.89
34742;BME280;20968;42.696;23.360;2022-07-29T07:06:55;95423.91;;;26.40;52.70
34742;BME280;20968;42.696;23.360;2022-07-29T07:09:21;95412.78;;;26.42;52.57
34742;BME280;20968;42.696;23.360;2022-07-29T07:11:46;95413.41;;;26.26;52.74
34742;BME280;20968;42.696;23.360;2022-07-29T07:14:12;95409.53;;;26.46;54.80
34742;BME280;20968;42.696;23.360;2022-07-29T07:16:37;95422.47;;;26.73;53.00
34742;BME280;20968;42.696;23.360;2022-07-29T07:19:02;95411.50;;;26.77;51.36
34742;BME280;20968;42.696;23.360;2022-07-29T07:21:28;95418.22;;;27.06;52.82
34742;BME280;20968;42.696;23.360;2022-07-29T07:23:53;95417.91;;;27.19;52.29
34742;BME280;20968;42.696;23.360;2022-07-29T07:26:19;95408.59;;;27.09;51.22
34742;BME280;20968;42.696;23.360;2022-07-29T07:28:44;95418.97;;;27.23;50.96
34742;BME280;20968;42.696;23.360;2022-07-29T07:31:10;95406.44;;;27.17;50.21
34742;BME280;20968;42.696;23.360;2022-07-29T07:33:35;95404.34;;;27.34;52.45
34742;BME280;20968;42.696;23.360;2022-07-29T07:36:01;95405.91;;;27.28;50.30
34742;BME280;20968;42.696;23.360;2022-07-29T07:38:26;95401.81;;;27.38;52.70
34742;BME280;20968;42.696;23.360;2022-07-29T07:40:52;95408.66;;;27.52;50.49
34742;BME280;20968;42.696;23.360;2022-07-29T07:43:17;95400.91;;;27.53;50.01
34742;BME280;20968;42.696;23.360;2022-07-29T07:45:42;95400.66;;;27.75;51.34
34742;BME280;20968;42.696;23.360;2022-07-29T07:48:08;95402.66;;;27.65;51.30
34742;BME280;20968;42.696;23.360;2022-07-29T07:50:36;95402.25;;;27.68;50.69
34742;BME280;20968;42.696;23.360;2022-07-29T07:53:02;95399.84;;;27.91;50.08
34742;BME280;20968;42.696;23.360;2022-07-29T07:55:28;95405.91;;;27.78;49.73
34742;BME280;20968;42.696;23.360;2022-07-29T07:57:54;95402.47;;;27.80;49.53
34742;BME280;20968;42.696;23.360;2022-07-29T08:00:20;95401.31;;;28.09;49.27
34742;BME280;20968;42.696;23.360;2022-07-29T08:02:46;95403.16;;;27.97;47.43
34742;BME280;20968;42.696;23.360;2022-07-29T08:05:12;95407.44;;;28.15;48.17
34742;BME280;20968;42.696;23.360;2022-07-29T08:07:42;95407.94;;;28.21;47.97
34742;BME280;20968;42.696;23.360;2022-07-29T08:10:08;95401.56;;;28.30;48.64
34742;BME280;20968;42.696;23.360;2022-07-29T08:12:34;95404.16;;;28.45;46.81
34742;BME280;20968;42.696;23.360;2022-07-29T08:15:00;95405.38;;;28.51;46.72
34742;BME280;20968;42.696;23.360;2022-07-29T08:17:25;95412.16;;;28.65;46.16
34742;BME280;20968;42.696;23.360;2022-07-29T08:19:51;95406.47;;;28.65;46.80
34742;BME280;20968;42.696;23.360;2022-07-29T08:22:17;95405.22;;;28.85;46.34
34742;BME280;20968;42.696;23.360;2022-07-29T08:24:42;95396.69;;;28.85;46.96
34742;BME280;20968;42.696;23.360;2022-07-29T08:27:09;95406.72;;;28.96;44.34
34742;BME280;20968;42.696;23.360;2022-07-29T08:29:35;95400.16;;;29.03;44.72
34742;BME280;20968;42.696;23.360;2022-07-29T08:32:10;95397.81;;;29.27;43.99
34742;BME280;20968;42.696;23.360;2022-07-29T08:34:35;95392.28;;;29.29;43.15
34742;BME280;20968;42.696;23.360;2022-07-29T08:37:01;95397.09;;;29.36;44.33
34742;BME280;20968;42.696;23.360;2022-07-29T08:39:26;95389.16;;;29.44;42.72
34742;BME280;20968;42.696;23.360;2022-07-29T08:41:52;95396.94;;;29.53;44.92
34742;BME280;20968;42.696;23.360;2022-07-29T08:44:18;95388.41;;;29.44;44.31
34742;BME280;20968;42.696;23.360;2022-07-29T08:46:45;95382.44;;;29.68;44.46
34742;BME280;20968;42.696;23.360;2022-07-29T08:49:10;95393.91;;;29.70;43.74
34742;BME280;20968;42.696;23.360;2022-07-29T08:51:36;95392.13;;;29.84;42.69
34742;BME280;20968;42.696;23.360;2022-07-29T08:54:04;95395.25;;;29.88;42.75
34742;BME280;20968;42.696;23.360;2022-07-29T08:56:30;95394.22;;;29.93;42.28
34742;BME280;20968;42.696;23.360;2022-07-29T08:58:57;95381.31;;;30.11;41.97
34742;BME280;20968;42.696;23.360;2022-07-29T09:01:26;95387.72;;;30.11;42.13
34742;BME280;20968;42.696;23.360;2022-07-29T09:03:55;95385.41;;;30.38;42.02
34742;BME280;20968;42.696;23.360;2022-07-29T09:06:22;95384.03;;;30.49;42.72
34742;BME280;20968;42.696;23.360;2022-07-29T09:08:51;95380.41;;;30.58;41.99
34742;BME280;20968;42.696;23.360;2022-07-29T09:11:16;95381.63;;;30.76;41.21
34742;BME280;20968;42.696;23.360;2022-07-29T09:13:42;95373.94;;;30.87;39.21
34742;BME280;20968;42.696;23.360;2022-07-29T09:16:07;95369.22;;;31.01;37.67
34742;BME280;20968;42.696;23.360;2022-07-29T09:18:40;95367.00;;;31.21;37.86
34742;BME280;20968;42.696;23.360;2022-07-29T09:21:08;95374.38;;;31.35;36.94
34742;BME280;20968;42.696;23.360;2022-07-29T09:24:11;95369.38;;;31.03;37.28
34742;BME280;20968;42.696;23.360;2022-07-29T09:26:42;95371.44;;;30.12;38.97
34742;BME280;20968;42.696;23.360;2022-07-29T09:31:40;95365.88;;;30.54;39.27
34742;BME280;20968;42.696;23.360;2022-07-29T09:34:06;95362.56;;;30.87;38.96
34742;BME280;20968;42.696;23.360;2022-07-29T09:36:46;95367.75;;;31.00;38.63
34742;BME280;20968;42.696;23.360;2022-07-29T09:39:13;95362.66;;;31.20;39.16
34742;BME280;20968;42.696;23.360;2022-07-29T09:41:51;95363.41;;;31.20;38.54
34742;BME280;20968;42.696;23.360;2022-07-29T09:44:20;95366.25;;;31.41;38.58
34742;BME280;20968;42.696;23.360;2022-07-29T09:46:57;95358.50;;;31.32;36.58
34742;BME280;20968;42.696;23.360;2022-07-29T09:49:24;95361.63;;;31.36;37.73
34742;BME280;20968;42.696;23.360;2022-07-29T09:52:00;95352.66;;;31.51;38.17
34742;BME280;20968;42.696;23.360;2022-07-29T09:54:27;95350.28;;;31.48;37.63
34742;BME280;20968;42.696;23.360;2022-07-29T09:56:54;95345.56;;;31.52;36.51
34742;BME280;20968;42.696;23.360;2022-07-29T09:59:21;95330.91;;;31.67;37.13
34742;BME280;20968;42.696;23.360;2022-07-29T10:01:49;95337.81;;;31.96;36.71
34742;BME280;20968;42.696;23.360;2022-07-29T10:04:15;95334.28;;;32.07;36.45
34742;BME280;20968;42.696;23.360;2022-07-29T10:07:00;95346.94;;;32.16;36.75
34742;BME280;20968;42.696;23.360;2022-07-29T10:09:26;95340.50;;;32.27;34.89
34742;BME280;20968;42.696;23.360;2022-07-29T10:12:11;95338.25;;;32.25;34.84
34742;BME280;20968;42.696;23.360;2022-07-29T10:14:40;95314.56;;;32.45;35.09
34742;BME280;20968;42.696;23.360;2022-07-29T10:17:06;95319.16;;;32.73;34.00
34742;BME280;20968;42.696;23.360;2022-07-29T10:19:33;95316.72;;;32.56;34.09
34742;BME280;20968;42.696;23.360;2022-07-29T10:22:00;95326.28;;;32.61;34.48
34742;BME280;20968;42.696;23.360;2022-07-29T10:24:28;95320.53;;;32.49;35.05
34742;BME280;20968;42.696;23.360;2022-07-29T10:26:55;95306.50;;;32.53;33.78
34742;BME280;20968;42.696;23.360;2022-07-29T10:29:21;95306.28;;;32.72;35.43
34742;BME280;20968;42.696;23.360;2022-07-29T10:37:58;95301.13;;;32.94;33.94
34742;BME280;20968;42.696;23.360;2022-07-29T10:43:33;95308.88;;;32.68;33.47
34742;BME280;20968;42.696;23.360;2022-07-29T10:46:02;95304.13;;;32.84;32.67
34742;BME280;20968;42.696;23.360;2022-07-29T10:48:28;95293.81;;;32.91;34.79
34742;BME280;20968;42.696;23.360;2022-07-29T10:50:58;95288.59;;;33.10;34.47
34742;BME280;20968;42.696;23.360;2022-07-29T10:53:51;95273.38;;;33.19;33.55
34742;BME280;20968;42.696;23.360;2022-07-29T10:56:28;95286.72;;;33.39;33.80
34742;BME280;20968;42.696;23.360;2022-07-29T11:01:53;95281.25;;;33.43;32.51
34742;BME280;20968;42.696;23.360;2022-07-29T11:07:09;95275.13;;;33.74;32.92
34742;BME280;20968;42.696;23.360;2022-07-29T11:09:35;95267.75;;;33.57;32.24
34742;BME280;20968;42.696;23.360;2022-07-29T11:12:01;95267.47;;;33.65;32.26
34742;BME280;20968;42.696;23.360;2022-07-29T11:17:17;95268.78;;;33.50;33.92
34742;BME280;20968;42.696;23.360;2022-07-29T11:19:43;95262.31;;;33.75;33.24
34742;BME280;20968;42.696;23.360;2022-07-29T11:22:10;95258.19;;;33.78;32.88
34742;BME280;20968;42.696;23.360;2022-07-29T11:24:36;95249.84;;;33.57;33.00
34742;BME280;20968;42.696;23.360;2022-07-29T11:27:18;95250.53;;;33.69;34.34
34742;BME280;20968;42.696;23.360;2022-07-29T11:29:50;95246.78;;;33.91;33.83
34742;BME280;20968;42.696;23.360;2022-07-29T11:32:17;95253.81;;;34.02;32.19
34742;BME280;20968;42.696;23.360;2022-07-29T11:34:45;95251.50;;;34.11;33.67
34742;BME280;20968;42.696;23.360;2022-07-29T11:40:09;95250.97;;;34.15;32.05
34742;BME280;20968;42.696;23.360;2022-07-29T11:42:37;95256.38;;;34.09;32.19
34742;BME280;20968;42.696;23.360;2022-07-29T11:47:35;95237.44;;;34.15;31.80
34742;BME280;20968;42.696;23.360;2022-07-29T11:50:03;95237.25;;;34.00;31.76
34742;BME280;20968;42.696;23.360;2022-07-29T11:52:33;95237.72;;;34.08;31.43
34742;BME280;20968;42.696;23.360;2022-07-29T11:55:04;95240.81;;;34.12;31.76
34742;BME280;20968;42.696;23.360;2022-07-29T11:57:31;95233.63;;;34.51;31.74
34742;BME280;20968;42.696;23.360;2022-07-29T11:59:57;95235.44;;;34.58;32.04
34742;BME280;20968;42.696;23.360;2022-07-29T12:02:23;95227.03;;;34.49;31.56
34742;BME280;20968;42.696;23.360;2022-07-29T12:07:18;95230.66;;;34.36;31.23
34742;BME280;20968;42.696;23.360;2022-07-29T12:09:51;95236.16;;;34.45;31.62
34742;BME280;20968;42.696;23.360;2022-07-29T12:12:17;95226.28;;;34.48;30.31
34742;BME280;20968;42.696;23.360;2022-07-29T12:14:43;95220.56;;;34.75;32.00
34742;BME280;20968;42.696;23.360;2022-07-29T12:17:29;95216.41;;;35.05;30.73
34742;BME280;20968;42.696;23.360;2022-07-29T12:19:55;95219.19;;;34.76;30.73
34742;BME280;20968;42.696;23.360;2022-07-29T12:22:26;95216.78;;;34.57;31.46
34742;BME280;20968;42.696;23.360;2022-07-29T12:24:52;95218.25;;;34.58;32.31
34742;BME280;20968;42.696;23.360;2022-07-29T12:27:18;95217.72;;;34.62;31.49
34742;BME280;20968;42.696;23.360;2022-07-29T12:29:43;95210.19;;;34.55;31.52
34742;BME280;20968;42.696;23.360;2022-07-29T12:32:09;95215.91;;;34.41;31.49
34742;BME280;20968;42.696;23.360;2022-07-29T12:34:35;95201.97;;;34.89;31.47
34742;BME280;20968;42.696;23.360;2022-07-29T12:37:01;95203.16;;;34.71;29.72
34742;BME280;20968;42.696;23.360;2022-07-29T12:39:27;95209.56;;;34.43;30.91
34742;BME280;20968;42.696;23.360;2022-07-29T12:41:53;95201.63;;;34.28;31.16
34742;BME280;20968;42.696;23.360;2022-07-29T12:44:19;95203.06;;;34.29;32.15
34742;BME280;20968;42.696;23.360;2022-07-29T12:46:44;95202.81;;;33.85;31.31
34742;BME280;20968;42.696;23.360;2022-07-29T12:49:21;95207.25;;;33.49;31.91
34742;BME280;20968;42.696;23.360;2022-07-29T12:51:47;95203.88;;;33.78;31.32
34742;BME280;20968;42.696;23.360;2022-07-29T12:54:14;95199.16;;;34.09;29.81
34742;BME280;20968;42.696;23.360;2022-07-29T12:56:41;95193.66;;;34.26;31.91
34742;BME280;20968;42.696;23.360;2022-07-29T12:59:18;95190.66;;;34.38;31.19
34742;BME280;20968;42.696;23.360;2022-07-29T13:01:46;95182.41;;;34.57;31.88
34742;BME280;20968;42.696;23.360;2022-07-29T13:04:25;95182.41;;;34.71;30.83
34742;BME280;20968;42.696;23.360;2022-07-29T13:06:58;95176.16;;;34.61;29.93
34742;BME280;20968;42.696;23.360;2022-07-29T13:09:40;95174.78;;;34.62;30.91
34742;BME280;20968;42.696;23.360;2022-07-29T13:12:10;95170.91;;;34.84;31.34
34742;BME280;20968;42.696;23.360;2022-07-29T13:14:44;95162.13;;;35.09;30.15
34742;BME280;20968;42.696;23.360;2022-07-29T13:19:46;95158.16;;;34.87;30.32
34742;BME280;20968;42.696;23.360;2022-07-29T13:22:20;95166.59;;;35.12;31.01
34742;BME280;20968;42.696;23.360;2022-07-29T13:27:19;95161.22;;;35.04;30.20
34742;BME280;20968;42.696;23.360;2022-07-29T13:29:45;95177.06;;;35.21;29.94
34742;BME280;20968;42.696;23.360;2022-07-29T13:32:12;95163.00;;;35.11;30.04
34742;BME280;20968;42.696;23.360;2022-07-29T13:34:37;95151.28;;;35.21;30.05
34742;BME280;20968;42.696;23.360;2022-07-29T13:37:03;95161.97;;;34.91;29.48